createdAt,value
2022-09-20T00:01:31.970Z,98946.50
2022-09-20T00:04:02.321Z,98947.09
2022-09-20T00:06:31.445Z,98952.69
2022-09-20T00:08:59.471Z,98961.78
2022-09-20T00:11:30.689Z,98955.75
2022-09-20T00:14:00.305Z,98960.06
2022-09-20T00:16:34.571Z,98952.50
2022-09-20T00:19:04.760Z,98963.63
2022-09-20T00:21:34.610Z,98955.00
2022-09-20T00:24:01.616Z,98960.53
2022-09-20T00:26:29.360Z,98958.59
2022-09-20T00:28:58.183Z,98960.06
2022-09-20T00:31:24.704Z,98960.06
2022-09-20T00:34:14.027Z,98967.16
2022-09-20T00:36:40.921Z,98961.00
2022-09-20T00:39:09.159Z,98963.91
2022-09-20T00:41:35.601Z,98965.88
2022-09-20T00:44:03.825Z,98955.34
2022-09-20T00:46:40.990Z,98960.72
2022-09-20T00:49:20.942Z,98966.81
2022-09-20T00:51:55.266Z,98964.66
2022-09-20T00:54:25.462Z,98964.50
2022-09-20T00:56:52.318Z,98966.91
2022-09-20T00:59:30.171Z,98965.41
2022-09-20T01:02:08.337Z,98970.38
2022-09-20T01:04:38.903Z,98978.56
2022-09-20T01:07:09.054Z,98974.22
2022-09-20T01:09:35.494Z,98962.69
2022-09-20T01:12:12.966Z,98963.19
2022-09-20T01:14:43.022Z,98967.19
2022-09-20T01:17:10.730Z,98963.13
2022-09-20T01:20:13.602Z,98962.28
2022-09-20T01:23:19.729Z,98963.81
2022-09-20T01:26:30.515Z,98960.00
2022-09-20T01:29:35.943Z,98960.41
2022-09-20T01:32:10.691Z,98950.88
2022-09-20T01:34:47.086Z,98949.88
2022-09-20T01:38:05.193Z,98951.78
2022-09-20T01:41:10.985Z,98958.84
2022-09-20T01:44:05.647Z,98952.78
2022-09-20T01:46:36.979Z,98950.88
2022-09-20T01:49:52.707Z,98959.78
2022-09-20T01:52:52.799Z,98955.75
2022-09-20T01:55:37.933Z,98962.81
2022-09-20T01:59:12.788Z,98962.00
2022-09-20T02:02:07.592Z,98971.06
2022-09-20T02:05:06.710Z,98965.69
2022-09-20T02:08:34.942Z,98968.56
2022-09-20T02:11:12.905Z,98972.09
2022-09-20T02:13:39.576Z,98968.44
2022-09-20T02:16:49.570Z,98975.69
2022-09-20T02:19:28.831Z,98969.53
2022-09-20T02:22:09.916Z,98971.66
2022-09-20T02:24:43.829Z,98970.19
2022-09-20T02:27:35.954Z,98970.69
2022-09-20T02:30:50.024Z,98964.38
2022-09-20T02:33:56.743Z,98964.53
2022-09-20T02:36:53.990Z,98958.53
2022-09-20T02:39:40.923Z,98959.59
2022-09-20T02:42:29.530Z,98961.69
2022-09-20T02:45:16.668Z,98959.69
2022-09-20T02:47:44.211Z,98955.16
2022-09-20T02:50:29.966Z,98966.22
2022-09-20T02:53:39.874Z,98962.59
2022-09-20T02:56:25.125Z,98957.22
2022-09-20T02:59:25.106Z,98964.81
2022-09-20T03:02:51.259Z,98960.81
2022-09-20T03:05:29.671Z,98952.34
2022-09-20T03:08:15.105Z,98959.97
2022-09-20T03:11:12.042Z,98954.53
2022-09-20T03:14:25.121Z,98954.00
2022-09-20T03:17:36.373Z,98949.94
2022-09-20T03:20:31.070Z,98946.38
2022-09-20T03:23:22.164Z,98947.06
2022-09-20T03:25:56.879Z,98948.38
2022-09-20T03:29:00.837Z,98947.22
2022-09-20T03:31:46.237Z,98944.22
2022-09-20T03:34:45.795Z,98943.13
2022-09-20T03:37:26.225Z,98940.84
2022-09-20T03:40:46.415Z,98941.63
2022-09-20T03:44:01.626Z,98939.00
2022-09-20T03:46:39.918Z,98940.22
2022-09-20T03:49:52.640Z,98944.44
2022-09-20T03:52:39.757Z,98936.25
2022-09-20T03:55:13.982Z,98935.50
2022-09-20T03:58:21.746Z,98930.13
2022-09-20T04:01:25.845Z,98929.97
2022-09-20T04:04:25.523Z,98935.41
2022-09-20T04:07:19.126Z,98936.22
2022-09-20T04:10:30.162Z,98928.88
2022-09-20T04:13:25.197Z,98940.19
2022-09-20T04:16:42.920Z,98935.53
2022-09-20T04:19:33.138Z,98935.94
2022-09-20T04:22:02.093Z,98929.16
2022-09-20T04:24:28.723Z,98932.91
2022-09-20T04:27:24.458Z,98932.69
2022-09-20T04:30:18.510Z,98926.31
2022-09-20T04:33:11.774Z,98938.78
2022-09-20T04:36:24.145Z,98933.13
2022-09-20T04:39:09.272Z,98942.88
2022-09-20T04:42:30.904Z,98943.50
2022-09-20T04:45:09.532Z,98947.13
2022-09-20T04:47:50.501Z,98948.25
2022-09-20T04:50:50.539Z,98958.00
2022-09-20T04:53:37.949Z,98959.03
2022-09-20T04:56:44.610Z,98959.28
2022-09-20T04:59:49.178Z,98962.91
2022-09-20T05:02:42.994Z,98965.53
2022-09-20T05:05:43.021Z,98974.56
2022-09-20T05:08:52.466Z,98969.34
2022-09-20T05:11:37.175Z,98973.84
2022-09-20T05:14:36.740Z,98977.66
2022-09-20T05:17:33.872Z,98979.47
2022-09-20T05:20:59.291Z,98986.69
2022-09-20T05:24:19.597Z,98979.75
2022-09-20T05:27:12.563Z,98986.56
2022-09-20T05:30:17.328Z,98989.94
2022-09-20T05:33:10.426Z,98986.69
2022-09-20T05:35:50.142Z,98986.81
2022-09-20T05:41:14.193Z,98993.75
2022-09-20T05:44:08.359Z,99000.41
2022-09-20T05:46:57.007Z,99000.47
2022-09-20T05:49:51.042Z,99000.81
2022-09-20T05:52:54.458Z,99011.97
2022-09-20T05:56:03.274Z,99007.28
2022-09-20T05:59:16.694Z,99005.13
2022-09-20T06:02:15.215Z,99001.44
2022-09-20T06:05:16.873Z,98999.50
2022-09-20T06:08:03.596Z,99013.31
2022-09-20T06:11:00.746Z,99016.78
2022-09-20T06:14:00.995Z,99010.03
2022-09-20T06:17:02.989Z,99020.81
2022-09-20T06:19:40.406Z,99017.81
2022-09-20T06:22:37.355Z,99025.47
2022-09-20T06:25:09.854Z,99020.34
2022-09-20T06:28:08.051Z,99028.81
2022-09-20T06:30:43.267Z,99023.72
2022-09-20T06:33:12.714Z,99024.19
2022-09-20T06:35:50.603Z,99029.47
2022-09-20T06:38:47.743Z,99027.47
2022-09-20T06:41:29.732Z,99030.38
2022-09-20T06:44:00.889Z,99021.78
2022-09-20T06:46:35.969Z,99024.19
2022-09-20T06:49:03.994Z,99029.75
2022-09-20T06:51:36.591Z,99029.75
2022-09-20T06:54:06.805Z,99033.88
2022-09-20T06:56:36.960Z,99034.97
2022-09-20T06:59:10.212Z,99035.56
2022-09-20T07:01:37.447Z,99046.06
2022-09-20T07:04:06.156Z,99037.50
2022-09-20T07:06:33.739Z,99041.56
2022-09-20T07:09:00.182Z,99041.47
2022-09-20T07:11:26.762Z,99049.06
2022-09-20T07:13:56.111Z,99054.72
2022-09-20T07:16:22.621Z,99053.28
2022-09-20T07:18:49.898Z,99046.56
2022-09-20T07:21:18.708Z,99052.75
2022-09-20T07:23:53.793Z,99049.69
2022-09-20T07:26:29.842Z,99050.16
2022-09-20T07:28:59.095Z,99059.72
2022-09-20T07:31:28.495Z,99057.59
2022-09-20T07:33:55.929Z,99057.91
2022-09-20T07:36:22.486Z,99059.56
2022-09-20T07:38:52.364Z,99054.16
2022-09-20T07:41:20.526Z,99057.56
2022-09-20T07:43:47.246Z,99057.88
2022-09-20T07:46:13.902Z,99056.31
2022-09-20T07:48:41.603Z,99066.06
2022-09-20T07:51:11.199Z,99061.44
2022-09-20T07:53:38.832Z,99058.72
2022-09-20T07:56:14.957Z,99059.56
2022-09-20T07:58:43.132Z,99070.38
2022-09-20T08:01:13.287Z,99067.06
2022-09-20T08:03:40.537Z,99067.22
2022-09-20T08:06:11.722Z,99069.09
2022-09-20T08:08:43.422Z,99072.41
2022-09-20T08:11:16.960Z,99071.78
2022-09-20T08:16:40.764Z,99077.97
2022-09-20T08:19:07.463Z,99075.50
2022-09-20T08:21:37.838Z,99084.28
2022-09-20T08:24:04.563Z,99080.97
2022-09-20T08:26:31.608Z,99083.00
2022-09-20T08:29:00.153Z,99085.31
2022-09-20T08:31:34.282Z,99088.63
2022-09-20T08:34:06.259Z,99084.88
2022-09-20T08:36:36.680Z,99080.28
2022-09-20T08:42:10.950Z,99080.53
2022-09-20T08:45:01.184Z,99080.91
2022-09-20T08:47:43.824Z,99080.91
2022-09-20T08:50:17.517Z,99085.00
2022-09-20T08:52:52.234Z,99085.97
2022-09-20T08:55:25.753Z,99089.44
2022-09-20T08:57:57.366Z,99087.00
2022-09-20T09:00:31.825Z,99077.28
2022-09-20T09:03:05.557Z,99080.41
2022-09-20T09:05:38.900Z,99082.25
2022-09-20T09:08:16.572Z,99085.44
2022-09-20T09:10:52.536Z,99074.66
2022-09-20T09:13:32.801Z,99086.03
2022-09-20T09:16:06.440Z,99085.41
2022-09-20T09:18:39.602Z,99088.06
2022-09-20T09:21:10.310Z,99098.28
2022-09-20T09:24:09.780Z,99102.38
2022-09-20T09:26:43.221Z,99100.75
2022-09-20T09:29:15.129Z,99099.31
2022-09-20T09:31:43.760Z,99100.72
2022-09-20T09:34:38.739Z,99099.50
2022-09-20T09:37:05.357Z,99102.25
2022-09-20T09:39:36.878Z,99096.59
2022-09-20T09:42:26.843Z,99083.94
2022-09-20T09:44:53.304Z,99090.69
2022-09-20T09:47:28.751Z,99090.69
2022-09-20T09:50:02.571Z,99089.31
2022-09-20T09:52:33.292Z,99081.19
2022-09-20T09:55:05.465Z,99082.97
2022-09-20T09:57:53.940Z,99083.75
2022-09-20T10:00:23.760Z,99084.06
2022-09-20T10:03:17.051Z,99087.69
2022-09-20T10:06:01.720Z,99086.06
2022-09-20T10:08:43.215Z,99081.44
2022-09-20T10:11:41.731Z,99076.34
2022-09-20T10:14:37.993Z,99077.72
2022-09-20T10:17:42.424Z,99062.31
2022-09-20T10:20:31.111Z,99063.72
2022-09-20T10:26:47.948Z,99067.94
2022-09-20T10:29:39.362Z,99063.94
2022-09-20T10:32:35.292Z,99070.94
2022-09-20T10:35:23.223Z,99061.47
2022-09-20T10:38:14.727Z,99062.75
2022-09-20T10:41:44.922Z,99052.09
2022-09-20T10:44:38.585Z,99059.13
2022-09-20T10:47:14.173Z,99050.25
2022-09-20T10:50:18.235Z,99044.81
2022-09-20T10:53:29.191Z,99054.84
2022-09-20T10:56:29.550Z,99051.72
2022-09-20T10:59:16.414Z,99064.00
2022-09-20T11:01:57.908Z,99057.19
2022-09-20T11:04:36.155Z,99066.81
2022-09-20T11:07:56.438Z,99064.00
2022-09-20T11:10:36.049Z,99069.25
2022-09-20T11:13:22.167Z,99062.69
2022-09-20T11:16:19.062Z,99066.69
2022-09-20T11:19:02.138Z,99067.09
2022-09-20T11:21:39.905Z,99086.41
2022-09-20T11:24:28.516Z,99078.88
2022-09-20T11:27:21.477Z,99085.78
2022-09-20T11:30:17.653Z,99082.16
2022-09-20T11:32:57.728Z,99081.94
2022-09-20T11:35:46.091Z,99077.56
2022-09-20T11:38:32.430Z,99078.19
2022-09-20T11:41:16.989Z,99078.53
2022-09-20T11:43:45.971Z,99070.81
2022-09-20T11:46:26.557Z,99077.81
2022-09-20T11:49:13.961Z,99076.13
2022-09-20T11:52:05.117Z,99069.78
2022-09-20T11:54:43.702Z,99081.50
2022-09-20T11:57:18.394Z,99072.81
2022-09-20T12:00:02.680Z,99083.19
2022-09-20T12:02:45.023Z,99085.66
2022-09-20T12:05:37.955Z,99086.75
2022-09-20T12:08:19.291Z,99074.22
2022-09-20T12:11:07.306Z,99070.94
2022-09-20T12:13:41.339Z,99068.84
2022-09-20T12:16:34.837Z,99070.31
2022-09-20T12:19:11.624Z,99072.97
2022-09-20T12:21:59.953Z,99074.72
2022-09-20T12:24:44.553Z,99061.75
2022-09-20T12:27:27.191Z,99058.75
2022-09-20T12:30:05.902Z,99065.53
2022-09-20T12:32:37.032Z,99052.56
2022-09-20T12:35:35.370Z,99053.75
2022-09-20T12:38:20.113Z,99048.97
2022-09-20T12:41:08.250Z,99055.16
2022-09-20T12:43:47.874Z,99051.03
2022-09-20T12:46:34.658Z,99054.91
2022-09-20T12:49:54.802Z,99056.25
2022-09-20T12:52:58.589Z,99048.88
2022-09-20T12:55:50.258Z,99055.75
2022-09-20T12:58:32.238Z,99055.16
2022-09-20T13:01:04.674Z,99060.72
2022-09-20T13:03:49.609Z,99051.78
2022-09-20T13:06:17.378Z,99056.72
2022-09-20T13:08:56.340Z,99059.50
2022-09-20T13:11:45.617Z,99054.06
2022-09-20T13:14:16.495Z,99062.63
2022-09-20T13:16:52.851Z,99058.91
2022-09-20T13:19:41.670Z,99055.03
2022-09-20T13:22:45.275Z,99054.78
2022-09-20T13:25:16.631Z,99063.97
2022-09-20T13:28:01.931Z,99068.78
2022-09-20T13:30:32.752Z,99060.59
2022-09-20T13:33:21.016Z,99063.97
2022-09-20T13:35:54.495Z,99059.13
2022-09-20T13:38:27.135Z,99051.66
2022-09-20T13:41:08.988Z,99057.09
2022-09-20T13:43:45.765Z,99059.50
2022-09-20T13:46:17.859Z,99056.72
2022-09-20T13:49:20.638Z,99061.69
2022-09-20T13:51:48.996Z,99059.13
2022-09-20T13:54:40.200Z,99054.31
2022-09-20T13:57:21.226Z,99055.75
2022-09-20T13:59:49.207Z,99045.75
2022-09-20T14:02:34.399Z,99059.44
2022-09-20T14:05:07.126Z,99055.50
2022-09-20T14:07:36.291Z,99057.31
2022-09-20T14:10:03.453Z,99052.88
2022-09-20T14:12:30.149Z,99055.53
2022-09-20T14:14:58.193Z,99055.66
2022-09-20T14:17:25.708Z,99058.16
2022-09-20T14:19:55.048Z,99054.06
2022-09-20T14:22:29.243Z,99057.47
2022-09-20T14:25:19.994Z,99054.06
2022-09-20T14:27:46.674Z,99054.53
2022-09-20T14:30:37.169Z,99060.81
2022-09-20T14:33:12.499Z,99054.56
2022-09-20T14:35:51.031Z,99057.22
2022-09-20T14:38:26.833Z,99054.91
2022-09-20T14:40:53.923Z,99053.97
2022-09-20T14:43:34.494Z,99055.41
2022-09-20T14:46:05.442Z,99045.16
2022-09-20T14:48:36.378Z,99059.00
2022-09-20T14:51:18.720Z,99053.34
2022-09-20T14:53:52.267Z,99045.38
2022-09-20T14:56:37.086Z,99045.34
2022-09-20T14:59:09.257Z,99057.06
2022-09-20T15:01:41.023Z,99056.81
2022-09-20T15:04:18.854Z,99052.09
2022-09-20T15:06:45.381Z,99048.25
2022-09-20T15:09:13.895Z,99052.59
2022-09-20T15:11:40.983Z,99057.91
2022-09-20T15:14:08.253Z,99059.81
2022-09-20T15:16:34.890Z,99049.72
2022-09-20T15:19:01.746Z,99052.63
2022-09-20T15:21:28.246Z,99061.41
2022-09-20T15:23:54.745Z,99063.09
2022-09-20T15:26:21.715Z,99060.31
2022-09-20T15:28:48.950Z,99064.06
2022-09-20T15:31:17.023Z,99053.81
2022-09-20T15:33:43.556Z,99064.16
2022-09-20T15:36:10.818Z,99071.16
2022-09-20T15:38:37.378Z,99074.03
2022-09-20T15:41:04.074Z,99070.16
2022-09-20T15:43:31.648Z,99065.03
2022-09-20T15:46:01.749Z,99069.44
2022-09-20T15:48:30.823Z,99057.78
2022-09-20T15:51:07.870Z,99062.84
2022-09-20T15:53:46.810Z,99063.13
2022-09-20T15:56:17.889Z,99069.38
2022-09-20T15:58:58.906Z,99071.19
2022-09-20T16:01:32.271Z,99068.63
2022-09-20T16:03:59.610Z,99061.25
2022-09-20T16:06:26.459Z,99066.69
2022-09-20T16:08:52.989Z,99068.38
2022-09-20T16:11:22.965Z,99065.84
2022-09-20T16:13:54.752Z,99070.41
2022-09-20T16:16:21.732Z,99062.84
2022-09-20T16:19:06.954Z,99071.50
2022-09-20T16:21:34.393Z,99072.84
2022-09-20T16:24:01.315Z,99077.63
2022-09-20T16:26:29.216Z,99076.22
2022-09-20T16:28:55.712Z,99077.66
2022-09-20T16:31:36.745Z,99086.03
2022-09-20T16:34:06.891Z,99077.81
2022-09-20T16:36:33.467Z,99083.47
2022-09-20T16:39:01.110Z,99079.78
2022-09-20T16:41:28.881Z,99088.72
2022-09-20T16:43:56.050Z,99090.84
2022-09-20T16:46:27.926Z,99091.09
2022-09-20T16:48:56.720Z,99097.88
2022-09-20T16:51:25.995Z,99099.75
2022-09-20T16:53:55.933Z,99097.13
2022-09-20T16:56:29.583Z,99100.81
2022-09-20T16:58:56.256Z,99106.53
2022-09-20T17:01:23.277Z,99098.50
2022-09-20T17:03:49.787Z,99100.59
2022-09-20T17:06:16.790Z,99106.19
2022-09-20T17:08:44.763Z,99111.88
2022-09-20T17:11:19.400Z,99121.34
2022-09-20T17:13:47.157Z,99115.25
2022-09-20T17:16:17.406Z,99112.66
2022-09-20T17:18:44.191Z,99118.88
2022-09-20T17:21:14.962Z,99126.25
2022-09-20T17:23:50.996Z,99129.66
2022-09-20T17:26:27.752Z,99128.94
2022-09-20T17:28:58.319Z,99135.59
2022-09-20T17:31:33.862Z,99130.78
2022-09-20T17:34:07.574Z,99137.19
2022-09-20T17:36:39.061Z,99140.91
2022-09-20T17:39:07.085Z,99152.38
2022-09-20T17:41:37.314Z,99152.38
2022-09-20T17:44:11.965Z,99157.13
2022-09-20T17:46:46.547Z,99159.34
2022-09-20T17:49:16.719Z,99159.81
2022-09-20T17:51:54.953Z,99158.16
2022-09-20T17:54:24.251Z,99163.63
2022-09-20T17:56:55.486Z,99168.47
2022-09-20T17:59:21.944Z,99171.22
2022-09-20T18:01:51.373Z,99174.03
2022-09-20T18:04:20.650Z,99170.28
2022-09-20T18:06:50.901Z,99176.72
2022-09-20T18:09:21.228Z,99181.72
2022-09-20T18:11:53.564Z,99183.84
2022-09-20T18:14:24.110Z,99182.88
2022-09-20T18:17:01.040Z,99188.69
2022-09-20T18:19:32.658Z,99191.78
2022-09-20T18:22:01.275Z,99198.09
2022-09-20T18:24:27.791Z,99202.31
2022-09-20T18:26:54.248Z,99203.25
2022-09-20T18:29:20.722Z,99203.00
2022-09-20T18:31:54.572Z,99207.50
2022-09-20T18:34:25.299Z,99208.78
2022-09-20T18:36:55.493Z,99205.88
2022-09-20T18:39:32.338Z,99208.41
2022-09-20T18:41:59.900Z,99211.66
2022-09-20T18:44:28.089Z,99211.97
2022-09-20T18:46:54.986Z,99209.56
2022-09-20T18:49:22.511Z,99216.72
2022-09-20T18:51:49.629Z,99220.03
2022-09-20T18:54:17.581Z,99221.06
2022-09-20T18:56:47.783Z,99225.13
2022-09-20T18:59:23.022Z,99233.13
2022-09-20T19:01:55.595Z,99231.06
2022-09-20T19:04:59.968Z,99230.97
2022-09-20T19:07:42.026Z,99244.50
2022-09-20T19:10:26.473Z,99238.59
2022-09-20T19:13:14.061Z,99240.84
2022-09-20T19:16:15.479Z,99245.09
2022-09-20T19:18:50.987Z,99244.34
2022-09-20T19:21:40.661Z,99244.69
2022-09-20T19:24:35.057Z,99247.06
2022-09-20T19:27:01.730Z,99249.09
2022-09-20T19:29:29.232Z,99242.47
2022-09-20T19:31:59.222Z,99251.97
2022-09-20T19:34:34.392Z,99257.09
2022-09-20T19:37:19.951Z,99265.47
2022-09-20T19:40:27.236Z,99267.09
2022-09-20T19:43:00.510Z,99272.34
2022-09-20T19:45:44.520Z,99273.63
2022-09-20T19:48:39.775Z,99278.31
2022-09-20T19:51:12.151Z,99275.34
2022-09-20T19:53:39.533Z,99283.84
2022-09-20T19:56:25.246Z,99282.72
2022-09-20T19:58:54.884Z,99284.00
2022-09-20T20:01:23.905Z,99282.56
2022-09-20T20:03:52.495Z,99283.75
2022-09-20T20:06:39.114Z,99286.91
2022-09-20T20:09:16.989Z,99293.97
2022-09-20T20:12:17.168Z,99293.19
2022-09-20T20:15:50.431Z,99294.44
2022-09-20T20:18:36.911Z,99295.56
2022-09-20T20:21:16.402Z,99293.13
2022-09-20T20:24:18.154Z,99289.00
2022-09-20T20:26:44.574Z,99297.28
2022-09-20T20:29:11.872Z,99301.19
2022-09-20T20:31:38.379Z,99299.53
2022-09-20T20:34:04.883Z,99305.50
2022-09-20T20:36:31.346Z,99302.50
2022-09-20T20:38:57.782Z,99306.75
2022-09-20T20:41:25.695Z,99308.28
2022-09-20T20:43:56.145Z,99310.47
2022-09-20T20:46:23.719Z,99309.44
2022-09-20T20:48:50.221Z,99308.38
2022-09-20T20:51:20.206Z,99319.25
2022-09-20T20:53:52.506Z,99313.44
2022-09-20T20:56:25.588Z,99314.66
2022-09-20T20:58:52.826Z,99318.22
2022-09-20T21:01:23.998Z,99330.38
2022-09-20T21:03:55.957Z,99328.13
2022-09-20T21:06:26.195Z,99321.34
2022-09-20T21:08:53.072Z,99322.88
2022-09-20T21:11:26.894Z,99324.13
2022-09-20T21:13:59.275Z,99328.72
2022-09-20T21:16:29.666Z,99323.81
2022-09-20T21:18:56.490Z,99327.03
2022-09-20T21:21:26.554Z,99330.53
2022-09-20T21:23:59.126Z,99337.16
2022-09-20T21:26:28.240Z,99339.78
2022-09-20T21:29:00.331Z,99342.81
2022-09-20T21:31:32.842Z,99344.13
2022-09-20T21:34:00.410Z,99342.88
2022-09-20T21:36:29.677Z,99344.75
2022-09-20T21:38:56.921Z,99345.59
2022-09-20T21:41:31.945Z,99342.13
2022-09-20T21:44:02.101Z,99349.78
2022-09-20T21:46:30.848Z,99356.09
2022-09-20T21:49:00.649Z,99350.84
2022-09-20T21:51:29.702Z,99354.16
2022-09-20T21:53:59.091Z,99358.03
2022-09-20T21:56:37.584Z,99359.34
2022-09-20T21:59:06.239Z,99357.25
2022-09-20T22:01:36.291Z,99365.44
2022-09-20T22:04:09.733Z,99358.91
2022-09-20T22:06:39.810Z,99357.75
2022-09-20T22:09:15.555Z,99354.53
2022-09-20T22:11:47.869Z,99357.31
2022-09-20T22:14:18.422Z,99359.75
2022-09-20T22:16:47.139Z,99364.75
2022-09-20T22:19:17.037Z,99362.47
2022-09-20T22:21:49.334Z,99359.28
2022-09-20T22:24:17.407Z,99359.50
2022-09-20T22:26:47.850Z,99370.44
2022-09-20T22:29:15.407Z,99364.53
2022-09-20T22:31:45.962Z,99365.09
2022-09-20T22:34:24.077Z,99364.44
2022-09-20T22:36:50.789Z,99365.47
2022-09-20T22:39:17.424Z,99357.44
2022-09-20T22:41:44.809Z,99363.19
2022-09-20T22:44:11.592Z,99361.16
2022-09-20T22:46:38.715Z,99356.22
2022-09-20T22:49:07.734Z,99354.88
2022-09-20T22:51:34.747Z,99354.13
2022-09-20T22:54:07.455Z,99354.75
2022-09-20T22:56:34.491Z,99355.41
2022-09-20T22:59:06.999Z,99355.09
2022-09-20T23:01:41.036Z,99357.00
2022-09-20T23:04:11.866Z,99360.97
2022-09-20T23:06:47.639Z,99362.91
2022-09-20T23:09:17.679Z,99355.63
2022-09-20T23:11:45.753Z,99356.09
2022-09-20T23:14:17.064Z,99367.75
2022-09-20T23:16:44.838Z,99361.88
2022-09-20T23:19:13.446Z,99367.13
2022-09-20T23:21:42.426Z,99365.78
2022-09-20T23:24:16.528Z,99371.19
2022-09-20T23:26:44.426Z,99364.28
2022-09-20T23:29:15.460Z,99364.63
2022-09-20T23:31:46.487Z,99373.28
2022-09-20T23:34:15.369Z,99364.72
2022-09-20T23:36:43.569Z,99365.53
2022-09-20T23:39:11.699Z,99370.78
2022-09-20T23:41:38.677Z,99374.81
2022-09-20T23:44:06.479Z,99371.44
2022-09-20T23:46:33.528Z,99372.56
2022-09-20T23:49:00.254Z,99372.94
2022-09-20T23:51:28.892Z,99372.16
2022-09-20T23:53:55.987Z,99368.69
2022-09-20T23:56:23.843Z,99367.22
2022-09-20T23:58:51.027Z,99366.16
